Perico, Argentina
Current Conditions -  °F | °C
As of 10:00 PM on Friday 28 Nov 2014 (Local Time) from SASJ Reporting Station
Scattered Clouds Scattered Clouds  
Wind Chill: 77°   Ceiling: Unl
Heat Index: 79°   Visibility: 6mi
Dew Point: 64°   Wind: 0mph
Humidity: 65%   Direction: NA
Pressure: 29.83"   Gusts: NA
Location:  24.38°S, 65.1°W
Report Text: SASJ 290100Z 00000KT 9999 SCT025 SCT10025/18 Q1010
Loading
Personal Weather Stations






























Interactive Weather Map New forecast layout! Learn more

10-Day Weather Forecast

Advertisements
Track Severe Weather on mobile